createdAt,value
2023-07-17T00:00:35.163Z,16.48
2023-07-17T00:02:43.602Z,16.45
2023-07-17T00:04:46.466Z,16.42
2023-07-17T00:06:49.357Z,16.46
2023-07-17T00:08:52.278Z,16.43
2023-07-17T00:10:55.318Z,16.42
2023-07-17T00:12:58.140Z,16.40
2023-07-17T00:15:01.104Z,16.37
2023-07-17T00:17:04.259Z,16.40
2023-07-17T00:19:07.027Z,16.38
2023-07-17T00:21:10.554Z,16.36
2023-07-17T00:23:13.408Z,16.37
2023-07-17T00:25:16.365Z,16.37
2023-07-17T00:27:19.172Z,16.31
2023-07-17T00:29:30.102Z,16.33
2023-07-17T00:31:33.180Z,16.27
2023-07-17T00:33:36.080Z,16.29
2023-07-17T00:35:39.019Z,16.30
2023-07-17T00:37:43.170Z,16.27
2023-07-17T00:39:46.095Z,16.34
2023-07-17T00:41:51.411Z,16.31
2023-07-17T00:43:54.164Z,16.33
2023-07-17T00:45:58.094Z,16.35
2023-07-17T00:48:01.403Z,16.33
2023-07-17T00:50:05.794Z,16.35
2023-07-17T00:52:11.518Z,16.35
2023-07-17T00:54:17.898Z,16.35
2023-07-17T00:56:20.640Z,16.34
2023-07-17T00:58:23.794Z,16.35
2023-07-17T01:00:26.728Z,16.41
2023-07-17T01:02:29.663Z,16.38
2023-07-17T01:04:32.476Z,16.40
2023-07-17T01:06:40.393Z,16.37
2023-07-17T01:08:43.535Z,16.38
2023-07-17T01:10:46.368Z,16.38
2023-07-17T01:12:49.155Z,16.39
2023-07-17T01:14:52.100Z,16.37
2023-07-17T01:16:54.977Z,16.35
2023-07-17T01:18:57.756Z,16.39
2023-07-17T01:21:00.671Z,16.35
2023-07-17T01:23:07.564Z,16.36
2023-07-17T01:25:10.459Z,16.34
2023-07-17T01:27:14.201Z,16.35
2023-07-17T01:29:17.239Z,16.39
2023-07-17T01:31:20.281Z,16.38
2023-07-17T01:33:23.426Z,16.40
2023-07-17T01:35:26.179Z,16.37
2023-07-17T01:37:28.964Z,16.38
2023-07-17T01:39:31.889Z,16.35
2023-07-17T01:41:34.922Z,16.42
2023-07-17T01:43:38.225Z,16.40
2023-07-17T01:45:41.050Z,16.44
2023-07-17T01:47:44.144Z,16.47
2023-07-17T01:49:46.893Z,16.52
2023-07-17T01:51:50.674Z,16.54
2023-07-17T01:53:53.474Z,16.56
2023-07-17T01:55:56.248Z,16.61
2023-07-17T01:58:00.029Z,16.66
2023-07-17T02:00:04.133Z,16.77
2023-07-17T02:02:10.504Z,16.82
2023-07-17T02:04:13.388Z,16.85
2023-07-17T02:06:18.526Z,16.89
2023-07-17T02:08:21.271Z,16.95
2023-07-17T02:10:24.287Z,16.96
2023-07-17T02:12:27.089Z,16.94
2023-07-17T02:14:29.991Z,16.95
2023-07-17T02:16:33.651Z,16.99
2023-07-17T02:18:36.861Z,16.92
2023-07-17T02:20:39.686Z,16.98
2023-07-17T02:22:42.613Z,16.98
2023-07-17T02:24:45.409Z,16.95
2023-07-17T02:26:48.240Z,16.89
2023-07-17T02:28:50.937Z,16.81
2023-07-17T02:30:53.786Z,16.86
2023-07-17T02:32:56.971Z,16.85
2023-07-17T02:35:00.162Z,16.82
2023-07-17T02:37:02.860Z,16.78
2023-07-17T02:39:05.856Z,16.73
2023-07-17T02:41:08.612Z,16.73
2023-07-17T02:43:11.441Z,16.74
2023-07-17T02:45:14.561Z,16.64
2023-07-17T02:47:18.384Z,16.72
2023-07-17T02:49:21.286Z,16.67
2023-07-17T02:51:24.063Z,16.65
2023-07-17T02:53:27.395Z,16.67
2023-07-17T02:55:30.150Z,16.73
2023-07-17T02:57:36.760Z,16.76
2023-07-17T02:59:39.615Z,16.76
2023-07-17T03:01:42.389Z,16.77
2023-07-17T03:03:45.078Z,16.83
2023-07-17T03:05:48.043Z,16.82
2023-07-17T03:07:52.050Z,16.89
2023-07-17T03:09:54.867Z,16.95
2023-07-17T03:11:57.690Z,17.00
2023-07-17T03:14:00.537Z,17.06
2023-07-17T03:16:03.666Z,17.16
2023-07-17T03:18:06.524Z,17.20
2023-07-17T03:20:12.904Z,17.22
2023-07-17T03:22:15.581Z,17.23
2023-07-17T03:24:18.378Z,17.32
2023-07-17T03:26:21.320Z,17.37
2023-07-17T03:28:24.223Z,17.40
2023-07-17T03:30:26.999Z,17.42
2023-07-17T03:32:35.034Z,17.36
2023-07-17T03:34:37.997Z,17.39
2023-07-17T03:36:41.108Z,17.42
2023-07-17T03:38:43.943Z,17.43
2023-07-17T03:40:46.784Z,17.43
2023-07-17T03:42:49.647Z,17.37
2023-07-17T03:44:52.623Z,17.41
2023-07-17T03:46:55.359Z,17.32
2023-07-17T03:48:58.526Z,17.27
2023-07-17T03:51:03.523Z,17.21
2023-07-17T03:53:06.573Z,17.25
2023-07-17T03:55:09.536Z,17.19
2023-07-17T03:57:12.496Z,17.21
2023-07-17T03:59:15.203Z,17.23
2023-07-17T04:01:18.215Z,17.29
2023-07-17T04:03:21.286Z,17.23
2023-07-17T04:05:24.069Z,17.29
2023-07-17T04:07:26.850Z,17.42
2023-07-17T04:09:29.566Z,17.43
2023-07-17T04:11:32.284Z,17.43
2023-07-17T04:13:35.133Z,17.49
2023-07-17T04:15:38.086Z,17.57
2023-07-17T04:17:40.876Z,17.67
2023-07-17T04:19:43.726Z,17.71
2023-07-17T04:21:46.455Z,17.84
2023-07-17T04:23:52.411Z,17.87
2023-07-17T04:25:55.391Z,17.90
2023-07-17T04:27:58.151Z,17.93
2023-07-17T04:30:00.848Z,18.03
2023-07-17T04:32:04.239Z,18.12
2023-07-17T04:34:06.953Z,18.07
2023-07-17T04:36:10.120Z,18.24
2023-07-17T04:38:13.093Z,18.37
2023-07-17T04:40:16.979Z,18.41
2023-07-17T04:42:19.767Z,18.40
2023-07-17T04:44:22.527Z,18.53
2023-07-17T04:46:25.940Z,18.59
2023-07-17T04:48:28.809Z,18.68
2023-07-17T04:50:32.084Z,18.69
2023-07-17T04:52:34.964Z,18.62
2023-07-17T04:54:37.788Z,18.66
2023-07-17T04:56:40.722Z,18.67
2023-07-17T04:58:43.413Z,18.71
2023-07-17T05:00:47.841Z,18.76
2023-07-17T05:02:50.818Z,18.85
2023-07-17T05:04:53.763Z,18.89
2023-07-17T05:07:00.080Z,19.03
2023-07-17T05:09:03.422Z,19.07
2023-07-17T05:11:06.558Z,19.04
2023-07-17T05:13:09.370Z,19.09
2023-07-17T05:15:12.220Z,19.19
2023-07-17T05:17:15.200Z,19.26
2023-07-17T05:19:18.041Z,19.29
2023-07-17T05:21:21.251Z,19.21
2023-07-17T05:23:24.822Z,19.16
2023-07-17T05:25:27.584Z,19.12
2023-07-17T05:27:30.469Z,19.00
2023-07-17T05:29:34.177Z,18.88
2023-07-17T05:31:36.979Z,18.96
2023-07-17T05:33:39.737Z,18.93
2023-07-17T05:35:42.531Z,18.97
2023-07-17T05:37:45.235Z,18.98
2023-07-17T05:39:47.995Z,19.10
2023-07-17T05:41:51.591Z,19.04
2023-07-17T05:43:54.397Z,19.01
2023-07-17T05:45:57.859Z,19.03
2023-07-17T05:48:02.874Z,18.95
2023-07-17T05:50:08.831Z,18.81
2023-07-17T05:52:12.663Z,18.75
2023-07-17T05:54:15.491Z,18.68
2023-07-17T05:56:18.375Z,18.76
2023-07-17T05:58:21.527Z,18.77
2023-07-17T06:00:25.020Z,18.89
2023-07-17T06:02:27.865Z,18.86
2023-07-17T06:04:30.743Z,18.80
2023-07-17T06:06:33.615Z,18.73
2023-07-17T06:08:36.395Z,18.76
2023-07-17T06:10:39.520Z,18.73
2023-07-17T06:12:42.202Z,18.72
2023-07-17T06:14:45.258Z,18.79
2023-07-17T06:16:48.105Z,18.79
2023-07-17T06:18:50.855Z,18.88
2023-07-17T06:20:53.615Z,19.03
2023-07-17T06:22:56.545Z,19.18
2023-07-17T06:24:59.520Z,19.31
2023-07-17T06:27:02.360Z,19.51
2023-07-17T06:29:06.909Z,19.74
2023-07-17T06:31:09.826Z,19.91
2023-07-17T06:33:12.644Z,20.04
2023-07-17T06:35:15.436Z,20.18
2023-07-17T06:37:18.666Z,20.31
2023-07-17T06:39:21.874Z,20.44
2023-07-17T06:41:24.694Z,20.52
2023-07-17T06:43:27.518Z,20.63
2023-07-17T06:45:31.737Z,20.73
2023-07-17T06:47:37.957Z,20.78
2023-07-17T06:49:42.601Z,20.94
2023-07-17T06:51:45.346Z,21.04
2023-07-17T06:53:48.049Z,21.18
2023-07-17T06:56:01.223Z,21.25
2023-07-17T06:58:04.197Z,21.38
2023-07-17T07:00:07.680Z,21.35
2023-07-17T07:02:11.108Z,21.22
2023-07-17T07:04:14.113Z,21.35
2023-07-17T07:06:17.312Z,21.36
2023-07-17T07:08:20.600Z,21.44
2023-07-17T07:10:23.555Z,21.43
2023-07-17T07:12:26.567Z,21.50
2023-07-17T07:14:29.403Z,21.57
2023-07-17T07:16:32.188Z,21.66
2023-07-17T07:18:35.333Z,21.93
2023-07-17T07:20:39.649Z,22.03
2023-07-17T07:22:42.491Z,22.05
2023-07-17T07:24:48.247Z,22.34
2023-07-17T07:26:51.311Z,22.56
2023-07-17T07:28:54.058Z,22.67
2023-07-17T07:30:58.985Z,22.58
2023-07-17T07:33:02.069Z,22.53
2023-07-17T07:35:05.171Z,22.80
2023-07-17T07:37:08.180Z,23.03
2023-07-17T07:39:12.360Z,23.13
2023-07-17T07:41:16.458Z,23.06
2023-07-17T07:43:19.176Z,23.13
2023-07-17T07:45:22.522Z,23.26
2023-07-17T07:47:25.710Z,23.06
2023-07-17T07:49:28.535Z,23.11
2023-07-17T07:51:31.394Z,23.12
2023-07-17T07:53:42.343Z,23.02
2023-07-17T07:55:46.204Z,23.00
2023-07-17T07:57:52.382Z,23.03
2023-07-17T07:59:55.329Z,23.01
2023-07-17T08:01:58.211Z,22.92
2023-07-17T08:04:00.990Z,23.16
2023-07-17T08:06:04.146Z,23.16
2023-07-17T08:08:07.021Z,23.26
2023-07-17T08:10:10.164Z,23.18
2023-07-17T08:12:13.050Z,23.11
2023-07-17T08:14:16.124Z,23.19
2023-07-17T08:16:19.044Z,23.30
2023-07-17T08:18:22.230Z,23.46
2023-07-17T08:20:25.212Z,23.66
2023-07-17T08:22:28.044Z,23.94
2023-07-17T08:24:31.074Z,24.19
2023-07-17T08:26:34.137Z,24.41
2023-07-17T08:28:37.257Z,24.45
2023-07-17T08:30:42.701Z,24.28
2023-07-17T08:32:45.707Z,24.18
2023-07-17T08:34:48.681Z,24.24
2023-07-17T08:36:52.163Z,24.08
2023-07-17T08:38:55.198Z,23.84
2023-07-17T08:41:00.628Z,23.70
2023-07-17T08:43:04.454Z,23.70
2023-07-17T08:45:10.835Z,23.67
2023-07-17T08:47:15.265Z,23.82
2023-07-17T08:49:20.933Z,24.02
2023-07-17T08:51:28.545Z,24.29
2023-07-17T08:53:34.890Z,24.42
2023-07-17T08:55:38.251Z,24.60
2023-07-17T08:57:43.684Z,24.57
2023-07-17T08:59:48.723Z,24.56
2023-07-17T09:01:51.727Z,24.54
2023-07-17T09:03:54.994Z,24.58
2023-07-17T09:05:57.874Z,24.76
2023-07-17T09:08:00.649Z,24.63
2023-07-17T09:10:24.650Z,24.74
2023-07-17T09:12:27.652Z,24.64
2023-07-17T09:14:30.444Z,24.79
2023-07-17T09:16:33.388Z,24.98
2023-07-17T09:18:37.757Z,25.03
2023-07-17T09:20:40.573Z,24.71
2023-07-17T09:22:43.957Z,24.83
2023-07-17T09:24:50.381Z,24.93
2023-07-17T09:26:57.915Z,24.76
2023-07-17T09:29:00.816Z,24.77
2023-07-17T09:31:04.065Z,24.59
2023-07-17T09:33:08.172Z,24.65
2023-07-17T09:35:14.944Z,24.54
2023-07-17T09:37:17.730Z,24.56
2023-07-17T09:39:20.541Z,24.64
2023-07-17T09:41:26.009Z,24.71
2023-07-17T09:43:32.587Z,24.67
2023-07-17T09:45:35.524Z,24.57
2023-07-17T09:47:39.269Z,24.47
2023-07-17T09:49:42.945Z,24.43
2023-07-17T09:51:46.393Z,24.39
2023-07-17T09:53:49.465Z,24.38
2023-07-17T09:55:54.002Z,24.30
2023-07-17T09:58:00.843Z,24.17
2023-07-17T10:00:06.349Z,23.99
2023-07-17T10:02:21.056Z,23.88
2023-07-17T10:04:44.014Z,23.92
2023-07-17T10:06:48.628Z,23.96
2023-07-17T10:08:52.144Z,24.09
2023-07-17T10:10:55.077Z,24.16
2023-07-17T10:12:58.757Z,24.14
2023-07-17T10:15:02.981Z,24.21
2023-07-17T10:17:24.181Z,24.15
2023-07-17T10:20:00.277Z,24.23
2023-07-17T10:22:03.118Z,24.22
2023-07-17T10:24:06.220Z,24.22
2023-07-17T10:26:10.653Z,24.25
2023-07-17T10:28:13.441Z,24.36
2023-07-17T10:30:26.616Z,24.32
2023-07-17T10:32:41.221Z,24.41
2023-07-17T10:34:52.480Z,24.39
2023-07-17T10:36:55.633Z,24.52
2023-07-17T10:39:00.460Z,24.53
2023-07-17T10:41:14.802Z,24.44
2023-07-17T10:43:20.111Z,24.45
2023-07-17T10:45:22.900Z,24.46
2023-07-17T10:47:25.955Z,24.56
2023-07-17T10:49:28.929Z,24.51
2023-07-17T10:51:31.679Z,24.58
2023-07-17T10:53:34.667Z,24.54
2023-07-17T10:55:38.032Z,24.61
2023-07-17T10:57:41.044Z,24.86
2023-07-17T10:59:44.261Z,25.28
2023-07-17T11:01:47.873Z,25.64
2023-07-17T11:03:54.705Z,25.90
2023-07-17T11:05:58.088Z,26.01
2023-07-17T11:08:01.009Z,26.12
2023-07-17T11:10:04.730Z,26.11
2023-07-17T11:12:08.761Z,26.15
2023-07-17T11:14:11.574Z,26.40
2023-07-17T11:16:14.766Z,26.75
2023-07-17T11:18:18.255Z,26.59
2023-07-17T11:20:21.218Z,26.34
2023-07-17T11:22:31.335Z,26.11
2023-07-17T11:24:34.241Z,25.77
2023-07-17T11:26:37.518Z,25.62
2023-07-17T11:28:41.571Z,25.38
2023-07-17T11:30:44.396Z,25.45
2023-07-17T11:32:59.339Z,25.46
2023-07-17T11:35:02.381Z,25.61
2023-07-17T11:37:06.434Z,25.59
2023-07-17T11:39:12.572Z,25.57
2023-07-17T11:41:15.399Z,25.63
2023-07-17T11:43:28.116Z,25.50
2023-07-17T11:45:32.058Z,25.62
2023-07-17T11:47:34.904Z,25.83
2023-07-17T11:49:40.583Z,25.79
2023-07-17T11:51:46.432Z,25.87
2023-07-17T11:53:55.004Z,26.09
2023-07-17T11:56:01.103Z,26.26
2023-07-17T11:58:37.783Z,26.14
2023-07-17T12:00:49.654Z,26.01
2023-07-17T12:02:52.976Z,26.06
2023-07-17T12:04:55.930Z,26.09
2023-07-17T12:06:59.194Z,26.17
2023-07-17T12:09:02.275Z,26.17
2023-07-17T12:11:05.184Z,26.09
2023-07-17T12:13:08.655Z,26.07
2023-07-17T12:15:12.450Z,26.03
2023-07-17T12:17:15.250Z,25.81
2023-07-17T12:19:19.688Z,26.25
2023-07-17T12:21:26.776Z,26.77
2023-07-17T12:23:32.803Z,27.19
2023-07-17T12:25:36.784Z,27.51
2023-07-17T12:27:39.713Z,27.67
2023-07-17T12:29:42.450Z,27.93
2023-07-17T12:31:45.471Z,28.14
2023-07-17T12:33:49.015Z,28.30
2023-07-17T12:35:51.818Z,28.12
2023-07-17T12:37:54.604Z,28.28
2023-07-17T12:39:58.047Z,28.57
2023-07-17T12:42:00.975Z,28.71
2023-07-17T12:44:03.849Z,28.88
2023-07-17T12:46:07.139Z,28.88
2023-07-17T12:48:10.759Z,28.95
2023-07-17T12:50:13.647Z,28.44
2023-07-17T12:52:16.980Z,28.57
2023-07-17T12:54:20.584Z,29.08
2023-07-17T12:56:26.799Z,29.27
2023-07-17T12:58:31.002Z,29.25
2023-07-17T13:00:33.844Z,29.03
2023-07-17T13:02:36.799Z,28.98
2023-07-17T13:04:39.691Z,28.70
2023-07-17T13:06:42.406Z,28.27
2023-07-17T13:08:45.144Z,27.97
2023-07-17T13:10:47.913Z,27.78
2023-07-17T13:12:50.654Z,27.55
2023-07-17T13:14:53.406Z,27.86
2023-07-17T13:16:58.128Z,28.49
2023-07-17T13:19:01.567Z,28.78
2023-07-17T13:21:06.041Z,29.15
2023-07-17T13:23:08.798Z,29.08
2023-07-17T13:25:11.692Z,28.68
2023-07-17T13:27:14.458Z,28.63
2023-07-17T13:29:17.199Z,28.08
2023-07-17T13:31:19.999Z,27.71
2023-07-17T13:33:22.731Z,27.55
2023-07-17T13:35:25.544Z,27.19
2023-07-17T13:37:28.253Z,27.08
2023-07-17T13:39:31.014Z,27.03
2023-07-17T13:41:42.561Z,26.81
2023-07-17T13:43:45.599Z,26.63
2023-07-17T13:45:48.385Z,26.50
2023-07-17T13:47:51.032Z,26.27
2023-07-17T13:49:53.802Z,26.17
2023-07-17T13:51:56.672Z,26.06
2023-07-17T13:53:59.396Z,25.96
2023-07-17T13:56:02.242Z,25.88
2023-07-17T13:58:05.322Z,25.76
2023-07-17T14:00:08.752Z,25.65
2023-07-17T14:02:11.510Z,25.63
2023-07-17T14:04:14.394Z,25.65
2023-07-17T14:06:17.427Z,25.71
2023-07-17T14:08:20.774Z,25.91
2023-07-17T14:10:23.970Z,26.20
2023-07-17T14:12:26.747Z,26.26
2023-07-17T14:14:30.716Z,26.04
2023-07-17T14:16:33.649Z,25.91
2023-07-17T14:18:40.739Z,25.64
2023-07-17T14:20:43.501Z,25.51
2023-07-17T14:22:46.483Z,25.43
2023-07-17T14:24:49.211Z,25.29
2023-07-17T14:26:51.895Z,25.20
2023-07-17T14:28:54.661Z,25.21
2023-07-17T14:30:57.486Z,25.27
2023-07-17T14:33:00.263Z,25.29
2023-07-17T14:35:03.050Z,25.25
2023-07-17T14:37:07.410Z,25.27
2023-07-17T14:39:10.152Z,25.31
2023-07-17T14:41:13.026Z,25.29
2023-07-17T14:43:15.730Z,25.17
2023-07-17T14:45:18.489Z,25.19
2023-07-17T14:47:22.909Z,25.16
2023-07-17T14:49:26.006Z,25.11
2023-07-17T14:51:28.762Z,25.05
2023-07-17T14:53:33.830Z,25.09
2023-07-17T14:55:37.189Z,25.24
2023-07-17T14:57:40.379Z,25.30
2023-07-17T14:59:43.203Z,25.27
2023-07-17T15:01:46.149Z,25.08
2023-07-17T15:03:48.942Z,25.13
2023-07-17T15:05:51.656Z,25.61
2023-07-17T15:07:54.399Z,25.79
2023-07-17T15:09:57.078Z,25.64
2023-07-17T15:12:00.125Z,25.44
2023-07-17T15:14:12.809Z,25.31
2023-07-17T15:16:20.314Z,25.20
2023-07-17T15:18:23.580Z,25.02
2023-07-17T15:20:26.550Z,24.95
2023-07-17T15:22:30.566Z,24.81
2023-07-17T15:24:33.414Z,24.67
2023-07-17T15:26:36.455Z,24.56
2023-07-17T15:28:39.602Z,24.50
2023-07-17T15:30:43.052Z,24.52
2023-07-17T15:32:46.632Z,24.91
2023-07-17T15:34:49.727Z,25.20
2023-07-17T15:36:52.551Z,25.18
2023-07-17T15:38:55.624Z,25.12
2023-07-17T15:40:59.949Z,25.45
2023-07-17T15:43:05.412Z,25.78
2023-07-17T15:45:20.323Z,26.05
2023-07-17T15:47:23.401Z,26.11
2023-07-17T15:49:26.183Z,26.13
2023-07-17T15:51:29.198Z,26.19
2023-07-17T15:53:32.226Z,25.89
2023-07-17T15:55:34.938Z,25.73
2023-07-17T15:57:37.655Z,25.49
2023-07-17T15:59:40.464Z,25.36
2023-07-17T16:01:43.461Z,25.21
2023-07-17T16:03:46.255Z,25.14
2023-07-17T16:05:49.199Z,25.04
2023-07-17T16:07:51.964Z,24.94
2023-07-17T16:09:54.939Z,24.81
2023-07-17T16:11:57.771Z,24.73
2023-07-17T16:14:00.452Z,24.63
2023-07-17T16:16:04.260Z,24.60
2023-07-17T16:18:07.104Z,24.47
2023-07-17T16:20:10.261Z,24.43
2023-07-17T16:22:12.938Z,24.38
2023-07-17T16:24:15.867Z,24.32
2023-07-17T16:26:18.718Z,24.26
2023-07-17T16:28:21.678Z,24.19
2023-07-17T16:30:24.548Z,24.13
2023-07-17T16:32:27.512Z,24.08
2023-07-17T16:34:30.234Z,23.97
2023-07-17T16:36:35.401Z,23.92
2023-07-17T16:38:38.088Z,23.89
2023-07-17T16:40:40.913Z,23.84
2023-07-17T16:42:43.708Z,23.76
2023-07-17T16:44:46.417Z,23.72
2023-07-17T16:46:49.306Z,23.67
2023-07-17T16:48:52.115Z,23.62
2023-07-17T16:50:54.821Z,23.58
2023-07-17T16:52:57.516Z,23.53
2023-07-17T16:55:00.295Z,23.49
2023-07-17T16:57:03.570Z,23.44
2023-07-17T16:59:06.396Z,23.39
2023-07-17T17:01:09.314Z,23.35
2023-07-17T17:03:12.353Z,23.29
2023-07-17T17:05:15.776Z,23.20
2023-07-17T17:07:18.457Z,23.17
2023-07-17T17:09:21.290Z,23.08
2023-07-17T17:11:24.031Z,23.05
2023-07-17T17:13:27.009Z,22.99
2023-07-17T17:15:30.107Z,22.92
2023-07-17T17:17:33.675Z,22.91
2023-07-17T17:19:36.557Z,22.90
2023-07-17T17:21:39.350Z,22.83
2023-07-17T17:23:42.118Z,22.79
2023-07-17T17:25:45.101Z,22.76
2023-07-17T17:27:47.787Z,22.70
2023-07-17T17:29:50.525Z,22.65
2023-07-17T17:31:53.859Z,22.62
2023-07-17T17:33:56.794Z,22.55
2023-07-17T17:35:59.584Z,22.50
2023-07-17T17:38:02.511Z,22.47
2023-07-17T17:40:10.477Z,22.41
2023-07-17T17:42:13.546Z,22.36
2023-07-17T17:44:16.302Z,22.34
2023-07-17T17:46:19.187Z,22.32
2023-07-17T17:48:22.664Z,22.26
2023-07-17T17:50:25.331Z,22.22
2023-07-17T17:52:28.079Z,22.17
2023-07-17T17:54:30.808Z,22.15
2023-07-17T17:56:33.581Z,22.10
2023-07-17T17:58:36.367Z,22.07
2023-07-17T18:00:39.032Z,22.08
2023-07-17T18:02:41.931Z,22.07
2023-07-17T18:04:44.962Z,22.07
2023-07-17T18:06:47.859Z,21.97
2023-07-17T18:08:50.525Z,21.84
2023-07-17T18:10:53.362Z,21.76
2023-07-17T18:12:56.432Z,21.68
2023-07-17T18:14:59.115Z,21.61
2023-07-17T18:17:01.850Z,21.51
2023-07-17T18:19:05.265Z,21.48
2023-07-17T18:21:08.313Z,21.47
2023-07-17T18:23:11.574Z,21.49
2023-07-17T18:25:14.442Z,21.49
2023-07-17T18:27:17.176Z,21.51
2023-07-17T18:29:19.832Z,21.51
2023-07-17T18:31:22.967Z,21.49
2023-07-17T18:33:26.512Z,21.41
2023-07-17T18:35:29.211Z,21.39
2023-07-17T18:37:32.371Z,21.41
2023-07-17T18:39:35.153Z,21.40
2023-07-17T18:41:37.818Z,21.43
2023-07-17T18:43:40.621Z,21.37
2023-07-17T18:45:44.183Z,21.33
2023-07-17T18:47:46.981Z,21.32
2023-07-17T18:49:50.342Z,21.27
2023-07-17T18:51:53.474Z,21.24
2023-07-17T18:53:56.726Z,21.19
2023-07-17T18:55:59.564Z,21.14
2023-07-17T18:58:02.421Z,21.06
2023-07-17T19:00:07.597Z,21.03
2023-07-17T19:02:10.346Z,20.96
2023-07-17T19:04:13.280Z,20.87
2023-07-17T19:06:16.068Z,20.81
2023-07-17T19:08:19.052Z,20.83
2023-07-17T19:10:22.151Z,20.76
2023-07-17T19:12:24.940Z,20.71
2023-07-17T19:14:31.272Z,20.67
2023-07-17T19:16:34.130Z,20.62
2023-07-17T19:18:37.326Z,20.58
2023-07-17T19:20:41.551Z,20.54
2023-07-17T19:22:44.373Z,20.53
2023-07-17T19:24:48.002Z,20.49
2023-07-17T19:26:50.721Z,20.47
2023-07-17T19:28:53.470Z,20.39
2023-07-17T19:30:57.028Z,20.38
2023-07-17T19:32:59.826Z,20.36
2023-07-17T19:35:02.570Z,20.33
2023-07-17T19:37:07.445Z,20.31
2023-07-17T19:39:10.240Z,20.27
2023-07-17T19:41:14.356Z,20.26
2023-07-17T19:43:27.040Z,20.26
2023-07-17T19:45:29.859Z,20.24
2023-07-17T19:47:32.701Z,20.21
2023-07-17T19:49:36.210Z,20.14
2023-07-17T19:51:39.587Z,20.13
2023-07-17T19:53:42.341Z,20.06
2023-07-17T19:55:46.290Z,20.01
2023-07-17T19:57:49.073Z,20.00
2023-07-17T19:59:52.542Z,19.96
2023-07-17T20:01:58.704Z,19.92
2023-07-17T20:04:02.227Z,19.86
2023-07-17T20:06:06.056Z,19.81
2023-07-17T20:08:08.858Z,19.82
2023-07-17T20:10:11.616Z,19.81
2023-07-17T20:12:14.426Z,19.80
2023-07-17T20:14:17.128Z,19.81
2023-07-17T20:16:19.922Z,19.78
2023-07-17T20:18:22.627Z,19.78
2023-07-17T20:20:25.279Z,19.78
2023-07-17T20:22:28.236Z,19.79
2023-07-17T20:24:31.698Z,19.80
2023-07-17T20:26:36.200Z,19.74
2023-07-17T20:28:39.639Z,19.72
2023-07-17T20:30:43.214Z,19.71
2023-07-17T20:32:46.048Z,19.69
2023-07-17T20:34:48.910Z,19.65
2023-07-17T20:36:51.829Z,19.62
2023-07-17T20:38:54.568Z,19.62
2023-07-17T20:40:57.341Z,19.58
2023-07-17T20:43:01.051Z,19.59
2023-07-17T20:45:04.644Z,19.60
2023-07-17T20:47:09.315Z,19.55
2023-07-17T20:49:12.213Z,19.52
2023-07-17T20:51:15.747Z,19.51
2023-07-17T20:53:19.317Z,19.50
2023-07-17T20:55:23.879Z,19.49
2023-07-17T20:57:29.146Z,19.46
2023-07-17T20:59:33.241Z,19.44
2023-07-17T21:01:38.676Z,19.44
2023-07-17T21:03:43.974Z,19.41
2023-07-17T21:05:51.376Z,19.41
2023-07-17T21:07:56.396Z,19.39
2023-07-17T21:10:02.188Z,19.40
2023-07-17T21:12:09.552Z,19.40
2023-07-17T21:14:12.882Z,19.39
2023-07-17T21:16:15.798Z,19.44
2023-07-17T21:18:19.234Z,19.41
2023-07-17T21:20:22.288Z,19.38
2023-07-17T21:22:25.525Z,19.38
2023-07-17T21:24:28.286Z,19.39
2023-07-17T21:26:30.950Z,19.40
2023-07-17T21:28:33.766Z,19.43
2023-07-17T21:30:37.095Z,19.46
2023-07-17T21:32:40.086Z,19.43
2023-07-17T21:34:42.986Z,19.43
2023-07-17T21:36:45.899Z,19.45
2023-07-17T21:38:48.637Z,19.44
2023-07-17T21:40:51.369Z,19.43
2023-07-17T21:42:54.836Z,19.44
2023-07-17T21:44:57.908Z,19.44
2023-07-17T21:47:00.660Z,19.48
2023-07-17T21:49:03.426Z,19.48
2023-07-17T21:51:06.242Z,19.48
2023-07-17T21:53:15.245Z,19.49
2023-07-17T21:55:18.207Z,19.49
2023-07-17T21:57:21.620Z,19.51
2023-07-17T21:59:24.683Z,19.55
2023-07-17T22:01:27.477Z,19.55
2023-07-17T22:03:30.669Z,19.55
2023-07-17T22:05:33.469Z,19.51
2023-07-17T22:07:36.470Z,19.48
2023-07-17T22:09:39.302Z,19.46
2023-07-17T22:11:42.250Z,19.43
2023-07-17T22:13:44.927Z,19.36
2023-07-17T22:15:47.732Z,19.34
2023-07-17T22:17:50.725Z,19.30
2023-07-17T22:19:53.682Z,19.22
2023-07-17T22:21:59.321Z,19.19
2023-07-17T22:24:02.208Z,19.16
2023-07-17T22:26:05.132Z,19.08
2023-07-17T22:28:08.105Z,19.03
2023-07-17T22:30:11.348Z,18.96
2023-07-17T22:32:15.205Z,18.90
2023-07-17T22:34:18.446Z,18.88
2023-07-17T22:36:21.509Z,18.87
2023-07-17T22:38:24.221Z,18.86
2023-07-17T22:40:27.846Z,18.88
2023-07-17T22:42:30.867Z,18.87
2023-07-17T22:44:34.249Z,18.85
2023-07-17T22:46:38.858Z,18.79
2023-07-17T22:48:41.616Z,18.75
2023-07-17T22:50:46.806Z,18.73
2023-07-17T22:52:49.502Z,18.70
2023-07-17T22:54:53.675Z,18.72
2023-07-17T22:56:57.654Z,18.72
2023-07-17T22:59:00.619Z,18.73
2023-07-17T23:01:04.600Z,18.74
2023-07-17T23:03:07.517Z,18.74
2023-07-17T23:05:13.735Z,18.70
2023-07-17T23:07:16.556Z,18.68
2023-07-17T23:09:19.304Z,18.68
2023-07-17T23:11:22.152Z,18.69
2023-07-17T23:13:28.129Z,18.70
2023-07-17T23:15:30.877Z,18.68
2023-07-17T23:17:33.682Z,18.70
2023-07-17T23:19:36.531Z,18.67
2023-07-17T23:21:39.322Z,18.64
2023-07-17T23:23:42.424Z,18.63
2023-07-17T23:25:46.014Z,18.60
2023-07-17T23:27:48.778Z,18.57
2023-07-17T23:29:51.564Z,18.59
2023-07-17T23:31:54.356Z,18.64
2023-07-17T23:33:57.089Z,18.62
2023-07-17T23:35:59.872Z,18.59
2023-07-17T23:38:03.881Z,18.64
2023-07-17T23:40:10.362Z,18.65
2023-07-17T23:42:14.553Z,18.63
2023-07-17T23:44:17.285Z,18.62
2023-07-17T23:46:20.128Z,18.68
2023-07-17T23:48:23.184Z,18.68
2023-07-17T23:50:26.101Z,18.75
2023-07-17T23:52:31.337Z,18.82
2023-07-17T23:54:34.351Z,18.82
2023-07-17T23:56:39.604Z,18.77
2023-07-17T23:58:42.346Z,18.77
